Etusivu
METAR-TAF:

METAR-TAF

Lentoasemat :

Savonlinnan lentoasema

Savonlinna, Suomi

Leveyspiiri: 61-57N, Pituuspiiri: 028-57E, korkeus merenpinnasta: 95 m

Tämänhetkinen sää

Tämä raportti tehtiin 26 minuuttia sitten, kello 10.20 UTC
Tuuli 3 kn lounaasta
Lämpötila -3°C
Kosteus 93%
Ilmanpaine 1019 hPa
Näkyvyys: 3200 m
Pilvistä 600 ft:n korkeudessa
heikkoa lumisadetta

METAR: EFSA 121020Z AUTO 23003KT 3200 -SN OVC006 M03/M04 Q1019

Aika: 12:46 (10:46 UTC)

Sääennuste

Tämä raportti tehtiin 2 tuntia ja 10 minuuttia sitten, kello 08.36 UTC
Ennuste voimassa 12. päivästä klo 09 UTC - 12. päivään klo 18 UTC
Tuuli 5 kn lännestä/lounaasta
Näkyvyys 10 km tai enemmän
Pilvistä 600 ft:n korkeudessa
Ajoittain
12. päivästä klo 09 UTC - 12. päivään klo 12 UTC
Näkyvyys: 4000 m
heikkoa lumisadetta
Tulossa
12. päivästä klo 14 UTC - 12. päivään klo 16 UTC
Hajonneita pilviä 1000 ft:n korkeudessa

TAF: EFSA 120836Z 1209/1218 24005KT 9999 OVC006 TEMPO 1209/1212 4000 -SN BECMG 1214/1216 BKN010

Säähavainnot ja -ennusteet yli 4000 lentoasemalta (METAR- ja TAF-raportit).

Käytössä olevat sääasemat on merkitty karttaan keltaisilla ja punaisilla pisteillä.

Aseta hiiri pisteen päälle nähdäksesi sääaseman nimen.

Klikkaa sitten nähdäksesi säähavainnot ja -ennusteet.

Kartan vaihtaminen: klikkaa mustalla rastilla varustettuja vihreitä pisteitä, niin voit zoomata sisään; viivalla varustettua vihreää pistettä, niin voit zoomata ulos tai vihreitä nuolia, niin pääset viereisille kartoille.


METAR-TAF: